sensor_id;sensor_type;location;lat;lon;timestamp;P1;durP1;ratioP1;P2;durP2;ratioP2
55362;SDS011;41244;49.242;9.060;2023-04-24T00:00:23;4.13;;;3.55;;
55362;SDS011;41244;49.242;9.060;2023-04-24T00:02:49;3.28;;;2.85;;
55362;SDS011;41244;49.242;9.060;2023-04-24T00:05:15;3.00;;;2.70;;
55362;SDS011;41244;49.242;9.060;2023-04-24T00:07:42;4.10;;;2.47;;
55362;SDS011;41244;49.242;9.060;2023-04-24T00:10:10;2.92;;;2.30;;
55362;SDS011;41244;49.242;9.060;2023-04-24T00:12:36;2.28;;;2.08;;
55362;SDS011;41244;49.242;9.060;2023-04-24T00:15:03;4.40;;;2.47;;
55362;SDS011;41244;49.242;9.060;2023-04-24T00:17:30;4.88;;;2.47;;
55362;SDS011;41244;49.242;9.060;2023-04-24T00:19:56;3.95;;;2.00;;
55362;SDS011;41244;49.242;9.060;2023-04-24T00:22:25;2.15;;;2.00;;
55362;SDS011;41244;49.242;9.060;2023-04-24T00:24:52;2.92;;;2.00;;
55362;SDS011;41244;49.242;9.060;2023-04-24T00:27:18;4.68;;;2.10;;
55362;SDS011;41244;49.242;9.060;2023-04-24T00:29:44;3.92;;;1.90;;
55362;SDS011;41244;49.242;9.060;2023-04-24T00:32:09;4.13;;;2.08;;
55362;SDS011;41244;49.242;9.060;2023-04-24T00:34:35;5.78;;;2.20;;
55362;SDS011;41244;49.242;9.060;2023-04-24T00:37:01;2.25;;;2.03;;
55362;SDS011;41244;49.242;9.060;2023-04-24T00:39:27;2.17;;;2.00;;
55362;SDS011;41244;49.242;9.060;2023-04-24T00:41:53;2.70;;;2.20;;
55362;SDS011;41244;49.242;9.060;2023-04-24T00:44:18;4.40;;;2.30;;
55362;SDS011;41244;49.242;9.060;2023-04-24T00:46:44;4.05;;;2.03;;
55362;SDS011;41244;49.242;9.060;2023-04-24T00:49:12;2.50;;;2.30;;
55362;SDS011;41244;49.242;9.060;2023-04-24T00:51:38;2.20;;;2.00;;
55362;SDS011;41244;49.242;9.060;2023-04-24T00:54:05;4.80;;;2.20;;
55362;SDS011;41244;49.242;9.060;2023-04-24T00:56:31;2.03;;;1.88;;
55362;SDS011;41244;49.242;9.060;2023-04-24T00:58:57;2.45;;;2.10;;
55362;SDS011;41244;49.242;9.060;2023-04-24T01:01:23;2.22;;;2.13;;
55362;SDS011;41244;49.242;9.060;2023-04-24T01:03:49;2.42;;;1.95;;
55362;SDS011;41244;49.242;9.060;2023-04-24T01:06:16;3.13;;;2.40;;
55362;SDS011;41244;49.242;9.060;2023-04-24T01:08:44;2.53;;;2.00;;
55362;SDS011;41244;49.242;9.060;2023-04-24T01:11:11;2.22;;;2.03;;
55362;SDS011;41244;49.242;9.060;2023-04-24T01:13:37;5.53;;;2.20;;
55362;SDS011;41244;49.242;9.060;2023-04-24T01:16:03;2.03;;;1.92;;
55362;SDS011;41244;49.242;9.060;2023-04-24T01:18:29;2.13;;;1.83;;
55362;SDS011;41244;49.242;9.060;2023-04-24T01:20:57;2.65;;;1.80;;
55362;SDS011;41244;49.242;9.060;2023-04-24T01:23:25;5.07;;;2.15;;
55362;SDS011;41244;49.242;9.060;2023-04-24T01:25:51;2.50;;;1.98;;
55362;SDS011;41244;49.242;9.060;2023-04-24T01:28:17;2.30;;;1.77;;
55362;SDS011;41244;49.242;9.060;2023-04-24T01:30:44;2.95;;;2.00;;
55362;SDS011;41244;49.242;9.060;2023-04-24T01:33:10;2.65;;;1.90;;
55362;SDS011;41244;49.242;9.060;2023-04-24T01:35:36;3.33;;;1.95;;
55362;SDS011;41244;49.242;9.060;2023-04-24T01:38:02;3.90;;;1.70;;
55362;SDS011;41244;49.242;9.060;2023-04-24T01:40:28;1.90;;;1.80;;
55362;SDS011;41244;49.242;9.060;2023-04-24T01:42:54;3.25;;;1.80;;
55362;SDS011;41244;49.242;9.060;2023-04-24T01:45:20;2.50;;;2.05;;
55362;SDS011;41244;49.242;9.060;2023-04-24T01:47:46;2.55;;;2.17;;
55362;SDS011;41244;49.242;9.060;2023-04-24T01:50:12;3.10;;;2.38;;
55362;SDS011;41244;49.242;9.060;2023-04-24T01:52:38;2.47;;;1.90;;
55362;SDS011;41244;49.242;9.060;2023-04-24T01:55:04;3.65;;;1.90;;
55362;SDS011;41244;49.242;9.060;2023-04-24T01:57:31;3.35;;;2.05;;
55362;SDS011;41244;49.242;9.060;2023-04-24T01:59:57;3.50;;;1.80;;
55362;SDS011;41244;49.242;9.060;2023-04-24T02:02:23;3.45;;;1.88;;
55362;SDS011;41244;49.242;9.060;2023-04-24T02:04:54;2.25;;;1.65;;
55362;SDS011;41244;49.242;9.060;2023-04-24T02:07:21;3.55;;;2.53;;
55362;SDS011;41244;49.242;9.060;2023-04-24T02:09:46;2.35;;;1.98;;
55362;SDS011;41244;49.242;9.060;2023-04-24T02:12:12;2.85;;;1.70;;
55362;SDS011;41244;49.242;9.060;2023-04-24T02:14:39;1.73;;;1.63;;
55362;SDS011;41244;49.242;9.060;2023-04-24T02:17:04;4.88;;;2.00;;
55362;SDS011;41244;49.242;9.060;2023-04-24T02:19:30;2.72;;;2.00;;
55362;SDS011;41244;49.242;9.060;2023-04-24T02:21:56;2.17;;;1.80;;
55362;SDS011;41244;49.242;9.060;2023-04-24T02:24:22;3.22;;;1.90;;
55362;SDS011;41244;49.242;9.060;2023-04-24T02:26:47;5.22;;;1.95;;
55362;SDS011;41244;49.242;9.060;2023-04-24T02:29:13;3.30;;;2.00;;
55362;SDS011;41244;49.242;9.060;2023-04-24T02:31:40;2.60;;;2.20;;
55362;SDS011;41244;49.242;9.060;2023-04-24T02:34:06;2.42;;;1.77;;
55362;SDS011;41244;49.242;9.060;2023-04-24T02:36:31;2.63;;;1.90;;
55362;SDS011;41244;49.242;9.060;2023-04-24T02:38:57;3.58;;;1.90;;
55362;SDS011;41244;49.242;9.060;2023-04-24T02:41:23;2.97;;;2.00;;
55362;SDS011;41244;49.242;9.060;2023-04-24T02:43:49;2.63;;;2.00;;
55362;SDS011;41244;49.242;9.060;2023-04-24T02:46:14;1.75;;;1.63;;
55362;SDS011;41244;49.242;9.060;2023-04-24T02:48:40;3.42;;;2.20;;
55362;SDS011;41244;49.242;9.060;2023-04-24T02:51:06;3.33;;;2.05;;
55362;SDS011;41244;49.242;9.060;2023-04-24T02:53:32;3.70;;;2.00;;
55362;SDS011;41244;49.242;9.060;2023-04-24T02:55:57;4.85;;;2.13;;
55362;SDS011;41244;49.242;9.060;2023-04-24T02:58:23;6.13;;;2.20;;
55362;SDS011;41244;49.242;9.060;2023-04-24T03:00:52;7.32;;;2.40;;
55362;SDS011;41244;49.242;9.060;2023-04-24T03:03:20;2.25;;;2.10;;
55362;SDS011;41244;49.242;9.060;2023-04-24T03:05:46;3.05;;;2.22;;
55362;SDS011;41244;49.242;9.060;2023-04-24T03:08:12;2.05;;;1.80;;
55362;SDS011;41244;49.242;9.060;2023-04-24T03:10:39;5.60;;;2.10;;
55362;SDS011;41244;49.242;9.060;2023-04-24T03:13:05;2.90;;;2.10;;
55362;SDS011;41244;49.242;9.060;2023-04-24T03:15:30;2.95;;;2.10;;
55362;SDS011;41244;49.242;9.060;2023-04-24T03:17:56;2.85;;;1.73;;
55362;SDS011;41244;49.242;9.060;2023-04-24T03:20:22;2.85;;;2.17;;
55362;SDS011;41244;49.242;9.060;2023-04-24T03:22:48;2.42;;;2.20;;
55362;SDS011;41244;49.242;9.060;2023-04-24T03:25:14;2.08;;;1.83;;
55362;SDS011;41244;49.242;9.060;2023-04-24T03:27:40;3.85;;;2.33;;
55362;SDS011;41244;49.242;9.060;2023-04-24T03:30:06;5.03;;;1.98;;
55362;SDS011;41244;49.242;9.060;2023-04-24T03:32:33;4.78;;;2.28;;
55362;SDS011;41244;49.242;9.060;2023-04-24T03:34:58;3.45;;;2.30;;
55362;SDS011;41244;49.242;9.060;2023-04-24T03:37:24;2.88;;;2.28;;
55362;SDS011;41244;49.242;9.060;2023-04-24T03:39:51;3.85;;;2.30;;
55362;SDS011;41244;49.242;9.060;2023-04-24T03:42:17;7.65;;;2.75;;
55362;SDS011;41244;49.242;9.060;2023-04-24T03:44:43;3.90;;;2.75;;
55362;SDS011;41244;49.242;9.060;2023-04-24T03:47:08;7.95;;;3.65;;
55362;SDS011;41244;49.242;9.060;2023-04-24T03:49:34;9.05;;;2.83;;
55362;SDS011;41244;49.242;9.060;2023-04-24T03:52:00;4.00;;;2.50;;
55362;SDS011;41244;49.242;9.060;2023-04-24T03:54:26;5.25;;;2.55;;
55362;SDS011;41244;49.242;9.060;2023-04-24T03:56:52;5.80;;;2.60;;
55362;SDS011;41244;49.242;9.060;2023-04-24T03:59:18;5.10;;;2.75;;
55362;SDS011;41244;49.242;9.060;2023-04-24T04:01:43;5.28;;;2.30;;
55362;SDS011;41244;49.242;9.060;2023-04-24T04:04:10;3.70;;;2.45;;
55362;SDS011;41244;49.242;9.060;2023-04-24T04:06:36;2.78;;;2.38;;
55362;SDS011;41244;49.242;9.060;2023-04-24T04:09:02;2.97;;;2.45;;
55362;SDS011;41244;49.242;9.060;2023-04-24T04:11:28;2.50;;;2.30;;
55362;SDS011;41244;49.242;9.060;2023-04-24T04:13:54;3.65;;;2.50;;
55362;SDS011;41244;49.242;9.060;2023-04-24T04:16:21;2.90;;;2.60;;
55362;SDS011;41244;49.242;9.060;2023-04-24T04:18:47;4.50;;;3.10;;
55362;SDS011;41244;49.242;9.060;2023-04-24T04:21:13;5.45;;;2.88;;
55362;SDS011;41244;49.242;9.060;2023-04-24T04:23:39;5.00;;;3.00;;
55362;SDS011;41244;49.242;9.060;2023-04-24T04:26:05;6.50;;;3.00;;
55362;SDS011;41244;49.242;9.060;2023-04-24T04:28:31;4.30;;;2.80;;
55362;SDS011;41244;49.242;9.060;2023-04-24T04:30:57;3.63;;;2.97;;
55362;SDS011;41244;49.242;9.060;2023-04-24T04:33:23;3.08;;;2.80;;
55362;SDS011;41244;49.242;9.060;2023-04-24T04:35:50;3.95;;;2.80;;
55362;SDS011;41244;49.242;9.060;2023-04-24T04:38:21;3.28;;;2.80;;
55362;SDS011;41244;49.242;9.060;2023-04-24T04:40:47;4.00;;;3.33;;
55362;SDS011;41244;49.242;9.060;2023-04-24T04:43:13;5.57;;;3.38;;
55362;SDS011;41244;49.242;9.060;2023-04-24T04:45:41;4.22;;;3.08;;
55362;SDS011;41244;49.242;9.060;2023-04-24T04:48:08;4.10;;;3.13;;
55362;SDS011;41244;49.242;9.060;2023-04-24T04:50:37;4.25;;;3.13;;
55362;SDS011;41244;49.242;9.060;2023-04-24T04:53:03;4.25;;;3.35;;
55362;SDS011;41244;49.242;9.060;2023-04-24T04:55:29;3.60;;;3.30;;
55362;SDS011;41244;49.242;9.060;2023-04-24T04:57:55;4.57;;;3.53;;
55362;SDS011;41244;49.242;9.060;2023-04-24T05:00:21;8.48;;;3.70;;
55362;SDS011;41244;49.242;9.060;2023-04-24T05:02:49;4.22;;;3.38;;
55362;SDS011;41244;49.242;9.060;2023-04-24T05:05:14;4.35;;;3.65;;
55362;SDS011;41244;49.242;9.060;2023-04-24T05:07:42;5.10;;;3.60;;
55362;SDS011;41244;49.242;9.060;2023-04-24T05:10:08;5.40;;;4.47;;
55362;SDS011;41244;49.242;9.060;2023-04-24T05:12:34;5.50;;;4.80;;
55362;SDS011;41244;49.242;9.060;2023-04-24T05:15:00;6.75;;;4.15;;
55362;SDS011;41244;49.242;9.060;2023-04-24T05:17:25;7.53;;;5.18;;
55362;SDS011;41244;49.242;9.060;2023-04-24T05:19:51;6.07;;;4.63;;
55362;SDS011;41244;49.242;9.060;2023-04-24T05:22:17;9.30;;;4.53;;
55362;SDS011;41244;49.242;9.060;2023-04-24T05:24:45;6.10;;;4.55;;
55362;SDS011;41244;49.242;9.060;2023-04-24T05:27:12;5.60;;;4.60;;
55362;SDS011;41244;49.242;9.060;2023-04-24T05:29:37;6.55;;;5.50;;
55362;SDS011;41244;49.242;9.060;2023-04-24T05:32:03;6.43;;;4.80;;
55362;SDS011;41244;49.242;9.060;2023-04-24T05:34:29;9.88;;;4.70;;
55362;SDS011;41244;49.242;9.060;2023-04-24T05:36:55;6.25;;;4.10;;
55362;SDS011;41244;49.242;9.060;2023-04-24T05:39:21;9.43;;;5.35;;
55362;SDS011;41244;49.242;9.060;2023-04-24T05:41:46;5.22;;;4.35;;
55362;SDS011;41244;49.242;9.060;2023-04-24T05:44:12;7.10;;;5.20;;
55362;SDS011;41244;49.242;9.060;2023-04-24T05:46:38;5.70;;;4.57;;
55362;SDS011;41244;49.242;9.060;2023-04-24T05:49:04;5.07;;;4.47;;
55362;SDS011;41244;49.242;9.060;2023-04-24T05:51:30;8.65;;;5.20;;
55362;SDS011;41244;49.242;9.060;2023-04-24T05:53:56;5.10;;;4.60;;
55362;SDS011;41244;49.242;9.060;2023-04-24T05:56:22;11.68;;;9.30;;
55362;SDS011;41244;49.242;9.060;2023-04-24T05:58:48;7.10;;;5.63;;
55362;SDS011;41244;49.242;9.060;2023-04-24T06:01:14;6.00;;;4.90;;
55362;SDS011;41244;49.242;9.060;2023-04-24T06:03:40;7.15;;;5.00;;
55362;SDS011;41244;49.242;9.060;2023-04-24T06:06:06;6.10;;;5.13;;
55362;SDS011;41244;49.242;9.060;2023-04-24T06:08:33;6.45;;;4.55;;
55362;SDS011;41244;49.242;9.060;2023-04-24T06:11:02;5.38;;;4.85;;
55362;SDS011;41244;49.242;9.060;2023-04-24T06:13:28;5.80;;;4.75;;
55362;SDS011;41244;49.242;9.060;2023-04-24T06:15:54;5.63;;;4.85;;
55362;SDS011;41244;49.242;9.060;2023-04-24T06:18:20;9.45;;;4.60;;
55362;SDS011;41244;49.242;9.060;2023-04-24T06:20:46;5.43;;;4.68;;
55362;SDS011;41244;49.242;9.060;2023-04-24T06:23:12;6.00;;;3.90;;
55362;SDS011;41244;49.242;9.060;2023-04-24T06:25:37;6.13;;;4.47;;
55362;SDS011;41244;49.242;9.060;2023-04-24T06:28:03;5.00;;;4.30;;
55362;SDS011;41244;49.242;9.060;2023-04-24T06:30:29;6.60;;;4.30;;
55362;SDS011;41244;49.242;9.060;2023-04-24T06:32:55;5.18;;;4.25;;
55362;SDS011;41244;49.242;9.060;2023-04-24T06:35:21;4.97;;;4.43;;
55362;SDS011;41244;49.242;9.060;2023-04-24T06:37:47;4.35;;;3.95;;
55362;SDS011;41244;49.242;9.060;2023-04-24T06:40:13;5.47;;;4.07;;
55362;SDS011;41244;49.242;9.060;2023-04-24T06:42:38;4.63;;;3.90;;
55362;SDS011;41244;49.242;9.060;2023-04-24T06:45:04;5.30;;;4.22;;
55362;SDS011;41244;49.242;9.060;2023-04-24T06:47:31;4.57;;;4.07;;
55362;SDS011;41244;49.242;9.060;2023-04-24T06:49:57;5.95;;;4.60;;
55362;SDS011;41244;49.242;9.060;2023-04-24T06:52:23;6.38;;;4.68;;
55362;SDS011;41244;49.242;9.060;2023-04-24T06:54:48;5.97;;;4.68;;
55362;SDS011;41244;49.242;9.060;2023-04-24T06:57:14;6.47;;;4.75;;
55362;SDS011;41244;49.242;9.060;2023-04-24T06:59:41;4.13;;;3.70;;
55362;SDS011;41244;49.242;9.060;2023-04-24T07:02:07;5.07;;;4.15;;
55362;SDS011;41244;49.242;9.060;2023-04-24T07:04:33;5.18;;;3.72;;
55362;SDS011;41244;49.242;9.060;2023-04-24T07:06:58;4.57;;;4.00;;
55362;SDS011;41244;49.242;9.060;2023-04-24T07:09:25;5.22;;;4.25;;
55362;SDS011;41244;49.242;9.060;2023-04-24T07:11:51;5.35;;;3.90;;
55362;SDS011;41244;49.242;9.060;2023-04-24T07:14:18;6.25;;;3.67;;
55362;SDS011;41244;49.242;9.060;2023-04-24T07:16:44;5.18;;;3.80;;
55362;SDS011;41244;49.242;9.060;2023-04-24T07:19:10;4.30;;;3.15;;
55362;SDS011;41244;49.242;9.060;2023-04-24T07:21:37;8.13;;;5.88;;
55362;SDS011;41244;49.242;9.060;2023-04-24T07:24:03;5.20;;;3.47;;
55362;SDS011;41244;49.242;9.060;2023-04-24T07:26:29;5.05;;;3.83;;
55362;SDS011;41244;49.242;9.060;2023-04-24T07:28:55;4.85;;;3.30;;
55362;SDS011;41244;49.242;9.060;2023-04-24T07:31:21;5.30;;;3.33;;
55362;SDS011;41244;49.242;9.060;2023-04-24T07:33:47;3.92;;;3.20;;
55362;SDS011;41244;49.242;9.060;2023-04-24T07:36:14;5.13;;;3.45;;
55362;SDS011;41244;49.242;9.060;2023-04-24T07:38:43;3.95;;;3.35;;
55362;SDS011;41244;49.242;9.060;2023-04-24T07:41:10;6.93;;;3.47;;
55362;SDS011;41244;49.242;9.060;2023-04-24T07:43:37;3.92;;;3.30;;
55362;SDS011;41244;49.242;9.060;2023-04-24T07:46:03;3.90;;;2.92;;
55362;SDS011;41244;49.242;9.060;2023-04-24T07:48:28;8.70;;;3.58;;
55362;SDS011;41244;49.242;9.060;2023-04-24T07:50:54;4.38;;;2.90;;
55362;SDS011;41244;49.242;9.060;2023-04-24T07:53:20;4.70;;;3.33;;
55362;SDS011;41244;49.242;9.060;2023-04-24T07:55:46;3.63;;;3.10;;
55362;SDS011;41244;49.242;9.060;2023-04-24T07:58:12;4.43;;;3.67;;
55362;SDS011;41244;49.242;9.060;2023-04-24T08:00:37;5.78;;;3.50;;
55362;SDS011;41244;49.242;9.060;2023-04-24T08:03:03;4.55;;;3.63;;
55362;SDS011;41244;49.242;9.060;2023-04-24T08:05:29;4.97;;;3.50;;
55362;SDS011;41244;49.242;9.060;2023-04-24T08:07:55;3.65;;;2.92;;
55362;SDS011;41244;49.242;9.060;2023-04-24T08:10:24;3.25;;;2.95;;
55362;SDS011;41244;49.242;9.060;2023-04-24T08:12:50;3.50;;;3.20;;
55362;SDS011;41244;49.242;9.060;2023-04-24T08:15:16;4.38;;;3.20;;
55362;SDS011;41244;49.242;9.060;2023-04-24T08:17:42;3.95;;;3.10;;
55362;SDS011;41244;49.242;9.060;2023-04-24T08:20:08;4.35;;;2.88;;
55362;SDS011;41244;49.242;9.060;2023-04-24T08:22:38;4.30;;;2.90;;
55362;SDS011;41244;49.242;9.060;2023-04-24T08:25:05;4.10;;;2.90;;
55362;SDS011;41244;49.242;9.060;2023-04-24T08:27:32;3.58;;;3.00;;
55362;SDS011;41244;49.242;9.060;2023-04-24T08:29:58;3.17;;;2.88;;
55362;SDS011;41244;49.242;9.060;2023-04-24T08:32:26;4.57;;;3.65;;
55362;SDS011;41244;49.242;9.060;2023-04-24T08:34:53;3.78;;;2.70;;
55362;SDS011;41244;49.242;9.060;2023-04-24T08:37:21;3.40;;;3.03;;
55362;SDS011;41244;49.242;9.060;2023-04-24T08:39:51;2.97;;;2.53;;
55362;SDS011;41244;49.242;9.060;2023-04-24T08:42:17;7.72;;;2.90;;
55362;SDS011;41244;49.242;9.060;2023-04-24T08:44:44;4.05;;;2.78;;
55362;SDS011;41244;49.242;9.060;2023-04-24T08:47:10;3.47;;;2.67;;
55362;SDS011;41244;49.242;9.060;2023-04-24T08:49:37;3.15;;;2.70;;
55362;SDS011;41244;49.242;9.060;2023-04-24T08:52:06;4.50;;;2.60;;
55362;SDS011;41244;49.242;9.060;2023-04-24T08:54:36;4.95;;;3.03;;
55362;SDS011;41244;49.242;9.060;2023-04-24T08:57:02;11.07;;;3.00;;
55362;SDS011;41244;49.242;9.060;2023-04-24T08:59:29;6.20;;;2.90;;
55362;SDS011;41244;49.242;9.060;2023-04-24T09:01:56;4.10;;;3.08;;
55362;SDS011;41244;49.242;9.060;2023-04-24T09:04:22;4.38;;;2.70;;
55362;SDS011;41244;49.242;9.060;2023-04-24T09:06:50;7.13;;;3.30;;
55362;SDS011;41244;49.242;9.060;2023-04-24T09:09:17;3.35;;;2.80;;
55362;SDS011;41244;49.242;9.060;2023-04-24T09:11:43;3.35;;;2.40;;
55362;SDS011;41244;49.242;9.060;2023-04-24T09:14:10;4.20;;;2.70;;
55362;SDS011;41244;49.242;9.060;2023-04-24T09:16:36;3.67;;;2.60;;
55362;SDS011;41244;49.242;9.060;2023-04-24T09:19:01;3.05;;;2.60;;
55362;SDS011;41244;49.242;9.060;2023-04-24T09:21:34;4.88;;;2.80;;
55362;SDS011;41244;49.242;9.060;2023-04-24T09:24:01;6.13;;;2.92;;
55362;SDS011;41244;49.242;9.060;2023-04-24T09:26:34;5.25;;;2.92;;
55362;SDS011;41244;49.242;9.060;2023-04-24T09:29:01;4.65;;;2.80;;
55362;SDS011;41244;49.242;9.060;2023-04-24T09:31:28;4.18;;;2.95;;
55362;SDS011;41244;49.242;9.060;2023-04-24T09:33:58;3.40;;;2.80;;
55362;SDS011;41244;49.242;9.060;2023-04-24T09:36:31;5.63;;;2.88;;
55362;SDS011;41244;49.242;9.060;2023-04-24T09:39:03;4.10;;;2.80;;
55362;SDS011;41244;49.242;9.060;2023-04-24T09:41:51;2.88;;;2.63;;
55362;SDS011;41244;49.242;9.060;2023-04-24T09:44:20;4.40;;;2.50;;
55362;SDS011;41244;49.242;9.060;2023-04-24T09:46:51;7.50;;;3.30;;
55362;SDS011;41244;49.242;9.060;2023-04-24T09:49:23;3.33;;;2.70;;
55362;SDS011;41244;49.242;9.060;2023-04-24T09:51:51;3.40;;;3.10;;
55362;SDS011;41244;49.242;9.060;2023-04-24T09:54:18;3.53;;;2.90;;
55362;SDS011;41244;49.242;9.060;2023-04-24T09:56:46;4.80;;;3.17;;
55362;SDS011;41244;49.242;9.060;2023-04-24T09:59:15;6.05;;;3.00;;
55362;SDS011;41244;49.242;9.060;2023-04-24T10:01:42;4.88;;;2.72;;
55362;SDS011;41244;49.242;9.060;2023-04-24T10:04:19;5.00;;;3.20;;
55362;SDS011;41244;49.242;9.060;2023-04-24T10:06:48;4.60;;;2.75;;
55362;SDS011;41244;49.242;9.060;2023-04-24T10:09:15;3.83;;;3.13;;
55362;SDS011;41244;49.242;9.060;2023-04-24T10:11:44;4.65;;;3.35;;
55362;SDS011;41244;49.242;9.060;2023-04-24T10:14:12;4.18;;;3.28;;
55362;SDS011;41244;49.242;9.060;2023-04-24T10:16:40;6.10;;;3.58;;
55362;SDS011;41244;49.242;9.060;2023-04-24T10:19:07;7.65;;;3.35;;
55362;SDS011;41244;49.242;9.060;2023-04-24T10:21:33;7.40;;;3.40;;
55362;SDS011;41244;49.242;9.060;2023-04-24T10:23:59;4.28;;;3.70;;
55362;SDS011;41244;49.242;9.060;2023-04-24T10:26:28;5.30;;;3.75;;
55362;SDS011;41244;49.242;9.060;2023-04-24T10:28:54;8.48;;;7.57;;
55362;SDS011;41244;49.242;9.060;2023-04-24T10:31:23;6.60;;;3.83;;
55362;SDS011;41244;49.242;9.060;2023-04-24T10:33:50;5.63;;;3.72;;
55362;SDS011;41244;49.242;9.060;2023-04-24T10:36:16;5.07;;;3.92;;
55362;SDS011;41244;49.242;9.060;2023-04-24T10:38:43;6.30;;;4.13;;
55362;SDS011;41244;49.242;9.060;2023-04-24T10:41:11;4.30;;;3.50;;
55362;SDS011;41244;49.242;9.060;2023-04-24T10:43:44;6.32;;;3.85;;
55362;SDS011;41244;49.242;9.060;2023-04-24T10:46:16;4.38;;;3.72;;
55362;SDS011;41244;49.242;9.060;2023-04-24T10:48:53;6.95;;;3.65;;
55362;SDS011;41244;49.242;9.060;2023-04-24T10:51:21;3.92;;;3.53;;
55362;SDS011;41244;49.242;9.060;2023-04-24T10:53:49;7.75;;;3.88;;
55362;SDS011;41244;49.242;9.060;2023-04-24T10:56:16;6.20;;;3.83;;
55362;SDS011;41244;49.242;9.060;2023-04-24T10:58:42;5.53;;;4.13;;
55362;SDS011;41244;49.242;9.060;2023-04-24T11:01:35;4.88;;;3.83;;
55362;SDS011;41244;49.242;9.060;2023-04-24T11:04:01;4.93;;;4.07;;
55362;SDS011;41244;49.242;9.060;2023-04-24T11:06:35;5.13;;;4.10;;
55362;SDS011;41244;49.242;9.060;2023-04-24T11:09:02;8.23;;;6.55;;
55362;SDS011;41244;49.242;9.060;2023-04-24T11:11:33;6.50;;;4.32;;
55362;SDS011;41244;49.242;9.060;2023-04-24T11:14:03;4.50;;;4.10;;
55362;SDS011;41244;49.242;9.060;2023-04-24T11:19:06;6.03;;;4.88;;
55362;SDS011;41244;49.242;9.060;2023-04-24T11:32:14;4.97;;;4.43;;
55362;SDS011;41244;49.242;9.060;2023-04-24T11:37:50;9.18;;;4.65;;
55362;SDS011;41244;49.242;9.060;2023-04-24T11:40:18;6.45;;;4.63;;
55362;SDS011;41244;49.242;9.060;2023-04-24T11:42:49;4.60;;;4.20;;
55362;SDS011;41244;49.242;9.060;2023-04-24T11:45:23;5.45;;;4.78;;
55362;SDS011;41244;49.242;9.060;2023-04-24T11:47:51;6.53;;;4.88;;
55362;SDS011;41244;49.242;9.060;2023-04-24T11:50:18;5.28;;;4.32;;
55362;SDS011;41244;49.242;9.060;2023-04-24T11:52:51;4.85;;;4.22;;
55362;SDS011;41244;49.242;9.060;2023-04-24T11:57:43;5.63;;;4.22;;
55362;SDS011;41244;49.242;9.060;2023-04-24T12:00:16;5.20;;;4.53;;
55362;SDS011;41244;49.242;9.060;2023-04-24T12:02:45;4.97;;;3.95;;
55362;SDS011;41244;49.242;9.060;2023-04-24T12:05:25;5.60;;;3.95;;
55362;SDS011;41244;49.242;9.060;2023-04-24T12:07:52;6.47;;;4.15;;
55362;SDS011;41244;49.242;9.060;2023-04-24T12:10:22;5.65;;;4.20;;
55362;SDS011;41244;49.242;9.060;2023-04-24T12:12:50;5.25;;;4.07;;
55362;SDS011;41244;49.242;9.060;2023-04-24T12:15:17;6.60;;;3.95;;
55362;SDS011;41244;49.242;9.060;2023-04-24T12:17:45;4.57;;;3.85;;
55362;SDS011;41244;49.242;9.060;2023-04-24T12:20:11;5.90;;;3.80;;
55362;SDS011;41244;49.242;9.060;2023-04-24T12:22:54;5.38;;;3.92;;
55362;SDS011;41244;49.242;9.060;2023-04-24T12:25:22;5.50;;;4.13;;
55362;SDS011;41244;49.242;9.060;2023-04-24T12:30:28;5.97;;;4.63;;
55362;SDS011;41244;49.242;9.060;2023-04-24T12:32:59;6.55;;;4.40;;
55362;SDS011;41244;49.242;9.060;2023-04-24T12:35:26;5.53;;;4.65;;
55362;SDS011;41244;49.242;9.060;2023-04-24T12:37:54;5.05;;;4.55;;
55362;SDS011;41244;49.242;9.060;2023-04-24T12:40:21;5.80;;;4.10;;
55362;SDS011;41244;49.242;9.060;2023-04-24T12:45:19;5.28;;;4.28;;
55362;SDS011;41244;49.242;9.060;2023-04-24T12:47:45;7.38;;;4.07;;
55362;SDS011;41244;49.242;9.060;2023-04-24T12:50:12;6.82;;;4.72;;
55362;SDS011;41244;49.242;9.060;2023-04-24T12:52:40;7.70;;;4.30;;
55362;SDS011;41244;49.242;9.060;2023-04-24T12:55:06;7.50;;;4.57;;
55362;SDS011;41244;49.242;9.060;2023-04-24T12:57:34;5.88;;;4.55;;
55362;SDS011;41244;49.242;9.060;2023-04-24T13:00:02;5.82;;;4.07;;
55362;SDS011;41244;49.242;9.060;2023-04-24T13:02:29;5.35;;;4.30;;
55362;SDS011;41244;49.242;9.060;2023-04-24T13:04:56;7.90;;;4.30;;
55362;SDS011;41244;49.242;9.060;2023-04-24T13:07:22;7.72;;;4.65;;
55362;SDS011;41244;49.242;9.060;2023-04-24T13:09:49;7.28;;;4.20;;
55362;SDS011;41244;49.242;9.060;2023-04-24T13:12:15;5.32;;;4.25;;
55362;SDS011;41244;49.242;9.060;2023-04-24T13:14:42;5.72;;;4.28;;
55362;SDS011;41244;49.242;9.060;2023-04-24T13:17:07;6.57;;;5.05;;
55362;SDS011;41244;49.242;9.060;2023-04-24T13:19:37;6.60;;;4.28;;
55362;SDS011;41244;49.242;9.060;2023-04-24T13:22:06;7.07;;;4.38;;
55362;SDS011;41244;49.242;9.060;2023-04-24T13:24:34;4.47;;;4.07;;
55362;SDS011;41244;49.242;9.060;2023-04-24T13:27:00;5.82;;;4.35;;
55362;SDS011;41244;49.242;9.060;2023-04-24T13:29:26;6.05;;;4.18;;
55362;SDS011;41244;49.242;9.060;2023-04-24T13:31:52;10.45;;;5.03;;
55362;SDS011;41244;49.242;9.060;2023-04-24T13:34:25;6.85;;;4.55;;
55362;SDS011;41244;49.242;9.060;2023-04-24T13:36:55;7.18;;;4.50;;
55362;SDS011;41244;49.242;9.060;2023-04-24T13:39:23;4.65;;;4.15;;
55362;SDS011;41244;49.242;9.060;2023-04-24T13:41:50;5.03;;;4.53;;
55362;SDS011;41244;49.242;9.060;2023-04-24T13:44:16;6.03;;;4.45;;
55362;SDS011;41244;49.242;9.060;2023-04-24T13:46:44;8.45;;;4.63;;
55362;SDS011;41244;49.242;9.060;2023-04-24T13:49:11;6.55;;;4.07;;
55362;SDS011;41244;49.242;9.060;2023-04-24T13:51:39;8.45;;;4.70;;
55362;SDS011;41244;49.242;9.060;2023-04-24T13:54:05;7.35;;;4.63;;
55362;SDS011;41244;49.242;9.060;2023-04-24T13:56:31;7.85;;;5.93;;
55362;SDS011;41244;49.242;9.060;2023-04-24T13:58:56;5.57;;;4.88;;
55362;SDS011;41244;49.242;9.060;2023-04-24T14:01:23;8.30;;;4.88;;
55362;SDS011;41244;49.242;9.060;2023-04-24T14:03:53;6.15;;;5.07;;
55362;SDS011;41244;49.242;9.060;2023-04-24T14:06:20;6.70;;;4.97;;
55362;SDS011;41244;49.242;9.060;2023-04-24T14:08:47;5.43;;;4.68;;
55362;SDS011;41244;49.242;9.060;2023-04-24T14:11:14;7.97;;;5.47;;
55362;SDS011;41244;49.242;9.060;2023-04-24T14:13:40;6.95;;;4.63;;
55362;SDS011;41244;49.242;9.060;2023-04-24T14:16:07;6.95;;;4.90;;
55362;SDS011;41244;49.242;9.060;2023-04-24T14:18:33;8.68;;;4.00;;
55362;SDS011;41244;49.242;9.060;2023-04-24T14:20:59;5.35;;;4.15;;
55362;SDS011;41244;49.242;9.060;2023-04-24T14:23:26;4.90;;;4.00;;
55362;SDS011;41244;49.242;9.060;2023-04-24T14:25:52;5.45;;;4.20;;
55362;SDS011;41244;49.242;9.060;2023-04-24T14:28:18;6.05;;;4.80;;
55362;SDS011;41244;49.242;9.060;2023-04-24T14:30:45;6.53;;;5.00;;
55362;SDS011;41244;49.242;9.060;2023-04-24T14:33:11;7.65;;;5.22;;
55362;SDS011;41244;49.242;9.060;2023-04-24T14:35:38;6.95;;;4.78;;
55362;SDS011;41244;49.242;9.060;2023-04-24T14:38:05;6.07;;;4.78;;
55362;SDS011;41244;49.242;9.060;2023-04-24T14:40:31;6.35;;;4.82;;
55362;SDS011;41244;49.242;9.060;2023-04-24T14:42:57;5.40;;;4.70;;
55362;SDS011;41244;49.242;9.060;2023-04-24T14:45:24;5.40;;;4.90;;
55362;SDS011;41244;49.242;9.060;2023-04-24T14:47:50;4.97;;;4.53;;
55362;SDS011;41244;49.242;9.060;2023-04-24T14:50:16;5.30;;;4.10;;
55362;SDS011;41244;49.242;9.060;2023-04-24T14:52:42;4.88;;;4.32;;
55362;SDS011;41244;49.242;9.060;2023-04-24T14:55:08;4.05;;;3.67;;
55362;SDS011;41244;49.242;9.060;2023-04-24T14:57:35;4.90;;;4.50;;
55362;SDS011;41244;49.242;9.060;2023-04-24T15:00:01;5.70;;;4.72;;
55362;SDS011;41244;49.242;9.060;2023-04-24T15:02:31;5.75;;;4.50;;
55362;SDS011;41244;49.242;9.060;2023-04-24T15:04:58;5.75;;;4.70;;
55362;SDS011;41244;49.242;9.060;2023-04-24T15:07:23;6.95;;;3.90;;
55362;SDS011;41244;49.242;9.060;2023-04-24T15:09:50;6.35;;;4.30;;